createdAt,value
2018-04-29T00:00:14.231Z,47.50
2018-04-29T00:00:51.539Z,47.50
2018-04-29T00:01:28.978Z,47.60
2018-04-29T00:02:06.340Z,47.60
2018-04-29T00:02:43.585Z,47.60
2018-04-29T00:03:21.071Z,47.50
2018-04-29T00:03:59.292Z,48.10
2018-04-29T00:04:36.651Z,47.50
2018-04-29T00:05:13.913Z,47.60
2018-04-29T00:05:52.765Z,47.40
2018-04-29T00:06:30.281Z,47.40
2018-04-29T00:07:07.688Z,47.50
2018-04-29T00:07:45.118Z,47.50
2018-04-29T00:08:23.194Z,48.20
2018-04-29T00:09:00.437Z,47.60
2018-04-29T00:09:37.678Z,47.60
2018-04-29T00:10:15.106Z,47.60
2018-04-29T00:10:52.497Z,47.50
2018-04-29T00:11:29.723Z,47.70
2018-04-29T00:12:07.099Z,47.50
2018-04-29T00:12:44.300Z,47.70
2018-04-29T00:13:22.486Z,48.00
2018-04-29T00:13:59.842Z,47.50
2018-04-29T00:14:37.345Z,47.70
2018-04-29T00:15:15.550Z,47.50
2018-04-29T00:15:52.795Z,47.50
2018-04-29T00:16:31.027Z,47.80
2018-04-29T00:17:08.249Z,47.80
2018-04-29T00:17:45.577Z,47.80
2018-04-29T00:18:23.671Z,47.70
2018-04-29T00:19:01.131Z,47.70
2018-04-29T00:19:38.538Z,47.70
2018-04-29T00:20:15.829Z,47.70
2018-04-29T00:20:53.883Z,47.60
2018-04-29T00:21:31.183Z,47.60
2018-04-29T00:22:08.603Z,47.60
2018-04-29T00:22:45.996Z,47.60
2018-04-29T00:23:23.173Z,47.70
2018-04-29T00:24:00.425Z,47.70
2018-04-29T00:24:37.899Z,47.70
2018-04-29T00:25:15.183Z,47.50
2018-04-29T00:25:53.411Z,47.80
2018-04-29T00:26:30.743Z,47.70
2018-04-29T00:27:08.995Z,47.50
2018-04-29T00:27:46.365Z,47.50
2018-04-29T00:28:23.654Z,47.50
2018-04-29T00:29:01.016Z,47.60
2018-04-29T00:29:38.249Z,47.50
2018-04-29T00:30:16.264Z,47.50
2018-04-29T00:30:54.391Z,47.50
2018-04-29T00:31:31.690Z,47.50
2018-04-29T00:32:09.025Z,47.70
2018-04-29T00:32:46.647Z,47.80
2018-04-29T00:33:24.899Z,47.70
2018-04-29T00:34:02.213Z,47.70
2018-04-29T00:34:40.244Z,47.90
2018-04-29T00:35:17.758Z,47.90
2018-04-29T00:35:55.048Z,47.70
2018-04-29T00:36:32.249Z,47.70
2018-04-29T00:37:10.282Z,47.80
2018-04-29T00:37:48.281Z,48.40
2018-04-29T00:38:25.601Z,47.80
2018-04-29T00:39:03.030Z,47.80
2018-04-29T00:39:41.210Z,47.80
2018-04-29T00:40:18.478Z,47.90
2018-04-29T00:40:56.687Z,47.90
2018-04-29T00:41:34.783Z,47.90
2018-04-29T00:42:12.444Z,47.90
2018-04-29T00:42:49.633Z,47.90
2018-04-29T00:43:26.896Z,47.90
2018-04-29T00:44:04.364Z,47.90
2018-04-29T00:44:41.713Z,48.00
2018-04-29T00:45:19.159Z,48.00
2018-04-29T00:45:57.338Z,48.00
2018-04-29T00:46:34.646Z,48.00
2018-04-29T00:47:12.613Z,47.90
2018-04-29T00:47:50.003Z,47.90
2018-04-29T00:48:27.302Z,47.80
2018-04-29T00:49:05.562Z,48.40
2018-04-29T00:49:43.647Z,47.80
2018-04-29T00:50:21.002Z,47.80
2018-04-29T00:50:58.293Z,47.90
2018-04-29T00:51:36.395Z,47.70
2018-04-29T00:52:13.655Z,47.70
2018-04-29T00:52:51.035Z,47.90
2018-04-29T00:53:29.169Z,48.00
2018-04-29T00:54:06.419Z,48.00
2018-04-29T00:54:43.737Z,47.90
2018-04-29T00:55:21.994Z,48.10
2018-04-29T00:55:59.370Z,48.00
2018-04-29T00:56:37.447Z,48.00
2018-04-29T00:57:15.533Z,48.00
2018-04-29T00:57:53.771Z,48.20
2018-04-29T00:58:31.190Z,48.20
2018-04-29T00:59:09.457Z,48.20
2018-04-29T00:59:46.974Z,48.20
2018-04-29T01:00:24.458Z,48.20
2018-04-29T01:01:01.907Z,48.10
2018-04-29T01:01:39.313Z,48.10
2018-04-29T01:02:16.650Z,48.00
2018-04-29T01:02:54.146Z,48.00
2018-04-29T01:03:31.526Z,48.10
2018-04-29T01:04:09.064Z,48.10
2018-04-29T01:04:46.371Z,48.10
2018-04-29T01:05:23.763Z,48.20
2018-04-29T01:06:01.039Z,48.20
2018-04-29T01:06:38.464Z,48.20
2018-04-29T01:07:16.523Z,48.20
2018-04-29T01:07:54.661Z,48.20
2018-04-29T01:08:31.995Z,48.20
2018-04-29T01:09:09.284Z,48.10
2018-04-29T01:09:46.583Z,48.10
2018-04-29T01:10:24.665Z,48.20
2018-04-29T01:11:02.013Z,48.20
2018-04-29T01:11:39.472Z,48.20
2018-04-29T01:12:16.936Z,48.20
2018-04-29T01:12:54.148Z,48.30
2018-04-29T01:13:31.390Z,48.20
2018-04-29T01:14:08.937Z,48.30
2018-04-29T01:14:46.257Z,48.20
2018-04-29T01:15:23.726Z,48.20
2018-04-29T01:16:01.220Z,48.20
2018-04-29T01:16:38.697Z,48.20
2018-04-29T01:17:16.694Z,48.30
2018-04-29T01:17:54.106Z,48.20
2018-04-29T01:18:31.326Z,48.10
2018-04-29T01:19:08.746Z,48.10
2018-04-29T01:19:46.113Z,48.20
2018-04-29T01:20:24.227Z,48.10
2018-04-29T01:21:01.440Z,48.00
2018-04-29T01:21:38.750Z,47.90
2018-04-29T01:22:16.055Z,48.00
2018-04-29T01:22:54.065Z,48.10
2018-04-29T01:23:31.458Z,48.10
2018-04-29T01:24:09.691Z,48.20
2018-04-29T01:24:46.963Z,48.10
2018-04-29T01:25:25.162Z,48.20
2018-04-29T01:26:02.620Z,48.20
2018-04-29T01:26:39.987Z,48.30
2018-04-29T01:27:17.424Z,48.30
2018-04-29T01:27:54.533Z,48.30
2018-04-29T01:28:31.832Z,48.20
2018-04-29T01:29:09.817Z,48.20
2018-04-29T01:29:47.123Z,48.20
2018-04-29T01:30:24.442Z,48.20
2018-04-29T01:31:01.682Z,48.30
2018-04-29T01:31:39.066Z,48.40
2018-04-29T01:32:16.559Z,48.20
2018-04-29T01:32:53.839Z,48.30
2018-04-29T01:33:31.252Z,48.20
2018-04-29T01:34:08.614Z,48.20
2018-04-29T01:34:45.997Z,48.20
2018-04-29T01:35:24.219Z,48.10
2018-04-29T01:36:02.188Z,48.80
2018-04-29T01:36:40.478Z,48.20
2018-04-29T01:37:17.866Z,48.20
2018-04-29T01:37:55.328Z,48.10
2018-04-29T01:38:32.685Z,48.10
2018-04-29T01:39:10.765Z,48.20
2018-04-29T01:39:48.186Z,48.20
2018-04-29T01:40:25.530Z,48.20
2018-04-29T01:41:02.948Z,48.40
2018-04-29T01:41:40.302Z,48.20
2018-04-29T01:42:18.421Z,48.20
2018-04-29T01:42:55.772Z,48.20
2018-04-29T01:43:33.202Z,48.30
2018-04-29T01:44:10.480Z,48.40
2018-04-29T01:44:48.537Z,48.30
2018-04-29T01:45:25.839Z,48.30
2018-04-29T01:46:03.099Z,48.50
2018-04-29T01:46:40.386Z,48.40
2018-04-29T01:47:18.458Z,48.20
2018-04-29T01:47:55.743Z,48.20
2018-04-29T01:48:33.093Z,48.20
2018-04-29T01:49:10.669Z,48.20
2018-04-29T01:49:48.054Z,48.20
2018-04-29T01:50:25.518Z,48.30
2018-04-29T01:51:03.738Z,48.40
2018-04-29T01:51:41.144Z,48.40
2018-04-29T01:52:18.463Z,48.40
2018-04-29T01:52:55.935Z,48.50
2018-04-29T01:53:33.124Z,48.60
2018-04-29T01:54:10.377Z,48.60
2018-04-29T01:54:47.650Z,48.60
2018-04-29T01:55:25.105Z,48.70
2018-04-29T01:56:02.399Z,48.70
2018-04-29T01:56:39.880Z,48.80
2018-04-29T01:57:18.006Z,48.80
2018-04-29T01:57:56.209Z,48.80
2018-04-29T01:58:33.449Z,48.80
2018-04-29T01:59:10.731Z,48.80
2018-04-29T01:59:48.134Z,48.80
2018-04-29T02:00:25.441Z,48.80
2018-04-29T02:01:02.716Z,48.80
2018-04-29T02:01:40.789Z,49.00
2018-04-29T02:02:19.095Z,49.10
2018-04-29T02:02:57.277Z,49.00
2018-04-29T02:03:35.414Z,49.00
2018-04-29T02:04:12.618Z,49.00
2018-04-29T02:04:49.977Z,48.90
2018-04-29T02:05:27.319Z,48.80
2018-04-29T02:06:04.560Z,49.40
2018-04-29T02:06:41.818Z,48.80
2018-04-29T02:07:19.966Z,48.60
2018-04-29T02:07:57.290Z,48.50
2018-04-29T02:08:35.569Z,48.40
2018-04-29T02:09:12.770Z,48.30
2018-04-29T02:09:50.907Z,48.30
2018-04-29T02:10:28.964Z,48.30
2018-04-29T02:11:06.296Z,48.30
2018-04-29T02:11:44.539Z,48.10
2018-04-29T02:12:21.900Z,48.10
2018-04-29T02:12:59.220Z,48.00
2018-04-29T02:13:36.610Z,47.50
2018-04-29T02:14:13.986Z,47.90
2018-04-29T02:14:51.378Z,47.70
2018-04-29T02:15:28.571Z,47.60
2018-04-29T02:16:05.918Z,47.70
2018-04-29T02:16:43.390Z,47.70
2018-04-29T02:17:21.623Z,47.60
2018-04-29T02:17:59.161Z,47.60
2018-04-29T02:18:36.596Z,47.70
2018-04-29T02:19:13.849Z,47.60
2018-04-29T02:19:51.350Z,47.60
2018-04-29T02:20:29.462Z,47.60
2018-04-29T02:21:07.541Z,47.50
2018-04-29T02:21:45.521Z,47.50
2018-04-29T02:22:23.619Z,47.50
2018-04-29T02:23:01.819Z,47.40
2018-04-29T02:23:39.158Z,47.40
2018-04-29T02:24:16.503Z,47.30
2018-04-29T02:24:54.566Z,47.30
2018-04-29T02:25:32.665Z,47.40
2018-04-29T02:26:09.993Z,47.40
2018-04-29T02:26:48.227Z,47.40
2018-04-29T02:27:25.575Z,47.30
2018-04-29T02:28:03.796Z,47.40
2018-04-29T02:28:41.102Z,47.30
2018-04-29T02:29:18.451Z,47.40
2018-04-29T02:29:55.767Z,47.40
2018-04-29T02:30:33.911Z,47.40
2018-04-29T02:31:12.101Z,47.40
2018-04-29T02:31:50.314Z,47.40
2018-04-29T02:32:27.638Z,47.40
2018-04-29T02:33:05.120Z,47.30
2018-04-29T02:33:43.175Z,47.40
2018-04-29T02:34:20.456Z,47.40
2018-04-29T02:34:58.611Z,47.20
2018-04-29T02:35:36.822Z,47.20
2018-04-29T02:36:14.097Z,47.20
2018-04-29T02:36:51.610Z,47.20
2018-04-29T02:37:29.897Z,47.20
2018-04-29T02:38:07.859Z,47.20
2018-04-29T02:38:45.311Z,47.20
2018-04-29T02:39:23.462Z,47.10
2018-04-29T02:40:00.637Z,47.10
2018-04-29T02:40:38.014Z,47.20
2018-04-29T02:41:15.259Z,47.20
2018-04-29T02:41:53.353Z,47.40
2018-04-29T02:42:31.476Z,47.30
2018-04-29T02:43:08.820Z,47.30
2018-04-29T02:43:46.850Z,47.30
2018-04-29T02:44:24.241Z,47.30
2018-04-29T02:45:01.673Z,47.20
2018-04-29T02:45:39.753Z,47.20
2018-04-29T02:46:17.958Z,47.20
2018-04-29T02:46:55.222Z,47.20
2018-04-29T02:47:32.707Z,47.20
2018-04-29T02:48:10.853Z,47.20
2018-04-29T02:48:48.938Z,47.40
2018-04-29T02:49:27.232Z,47.20
2018-04-29T02:50:05.424Z,47.40
2018-04-29T02:50:42.841Z,47.30
2018-04-29T02:51:20.039Z,47.20
2018-04-29T02:51:57.490Z,47.20
2018-04-29T02:52:35.706Z,47.20
2018-04-29T02:53:13.802Z,47.20
2018-04-29T02:53:51.150Z,47.20
2018-04-29T02:54:28.479Z,47.80
2018-04-29T02:55:06.552Z,47.60
2018-04-29T02:55:43.831Z,47.00
2018-04-29T02:56:21.806Z,47.00
2018-04-29T02:56:59.246Z,47.00
2018-04-29T02:57:37.492Z,47.10
2018-04-29T02:58:14.732Z,47.10
2018-04-29T02:58:53.083Z,47.20
2018-04-29T02:59:30.411Z,47.20
2018-04-29T03:00:08.531Z,47.30
2018-04-29T03:00:46.616Z,47.30
2018-04-29T03:01:23.990Z,47.30
2018-04-29T03:02:01.417Z,47.30
2018-04-29T03:02:39.463Z,47.30
2018-04-29T03:03:16.786Z,47.30
2018-04-29T03:03:55.079Z,47.40
2018-04-29T03:04:33.129Z,47.30
2018-04-29T03:05:10.585Z,47.30
2018-04-29T03:05:47.993Z,47.40
2018-04-29T03:06:25.242Z,47.30
2018-04-29T03:07:02.630Z,47.30
2018-04-29T03:07:40.834Z,47.40
2018-04-29T03:08:18.107Z,47.40
2018-04-29T03:08:55.577Z,47.40
2018-04-29T03:09:33.062Z,47.40
2018-04-29T03:10:10.237Z,47.40
2018-04-29T03:10:48.334Z,47.50
2018-04-29T03:11:25.679Z,47.40
2018-04-29T03:12:03.083Z,47.50
2018-04-29T03:12:41.080Z,47.50
2018-04-29T03:13:18.438Z,47.40
2018-04-29T03:13:55.880Z,47.40
2018-04-29T03:14:33.926Z,47.60
2018-04-29T03:15:11.265Z,47.50
2018-04-29T03:15:48.453Z,47.50
2018-04-29T03:16:26.565Z,47.50
2018-04-29T03:17:03.924Z,47.50
2018-04-29T03:17:41.352Z,47.50
2018-04-29T03:18:18.817Z,47.40
2018-04-29T03:18:56.881Z,47.40
2018-04-29T03:19:34.993Z,47.40
2018-04-29T03:20:12.469Z,47.30
2018-04-29T03:20:49.805Z,47.30
2018-04-29T03:21:27.235Z,47.40
2018-04-29T03:22:04.469Z,47.20
2018-04-29T03:22:42.590Z,47.90
2018-04-29T03:23:19.920Z,47.30
2018-04-29T03:23:57.241Z,47.30
2018-04-29T03:24:34.585Z,47.30
2018-04-29T03:25:11.841Z,47.30
2018-04-29T03:25:49.204Z,47.30
2018-04-29T03:26:27.263Z,47.30
2018-04-29T03:27:04.652Z,47.20
2018-04-29T03:27:41.913Z,47.20
2018-04-29T03:28:19.247Z,47.20
2018-04-29T03:28:56.582Z,47.20
2018-04-29T03:29:34.672Z,47.20
2018-04-29T03:30:12.887Z,47.20
2018-04-29T03:30:51.142Z,47.20
2018-04-29T03:31:29.228Z,47.20
2018-04-29T03:32:06.615Z,47.20
2018-04-29T03:32:44.698Z,47.30
2018-04-29T03:33:22.706Z,47.90
2018-04-29T03:34:00.685Z,47.40
2018-04-29T03:34:38.036Z,47.40
2018-04-29T03:35:15.519Z,47.40
2018-04-29T03:35:53.032Z,47.40
2018-04-29T03:36:30.350Z,47.30
2018-04-29T03:37:08.585Z,47.20
2018-04-29T03:37:46.794Z,47.20
2018-04-29T03:38:24.116Z,47.20
2018-04-29T03:39:02.154Z,47.30
2018-04-29T03:39:39.514Z,47.30
2018-04-29T03:40:16.881Z,47.30
2018-04-29T03:40:54.323Z,47.30
2018-04-29T03:41:31.658Z,47.30
2018-04-29T03:42:09.006Z,47.30
2018-04-29T03:42:46.472Z,47.30
2018-04-29T03:43:23.885Z,47.20
2018-04-29T03:44:01.387Z,47.20
2018-04-29T03:44:39.451Z,47.90
2018-04-29T03:45:16.834Z,47.20
2018-04-29T03:45:54.958Z,47.20
2018-04-29T03:46:33.022Z,47.20
2018-04-29T03:47:10.375Z,47.20
2018-04-29T03:47:47.594Z,47.20
2018-04-29T03:48:24.903Z,47.10
2018-04-29T03:49:03.038Z,47.10
2018-04-29T03:49:40.409Z,47.10
2018-04-29T03:50:18.624Z,47.10
2018-04-29T03:50:56.705Z,47.10
2018-04-29T03:51:34.074Z,47.10
2018-04-29T03:52:12.306Z,47.10
2018-04-29T03:52:50.466Z,47.10
2018-04-29T03:53:27.874Z,47.10
2018-04-29T03:54:05.951Z,47.10
2018-04-29T03:54:43.403Z,47.00
2018-04-29T03:55:21.614Z,47.10
2018-04-29T03:55:59.882Z,47.10
2018-04-29T03:56:37.332Z,47.00
2018-04-29T03:57:15.494Z,47.00
2018-04-29T03:57:53.581Z,47.00
2018-04-29T03:58:30.967Z,47.00
2018-04-29T03:59:08.951Z,47.00
2018-04-29T03:59:46.375Z,47.60
2018-04-29T04:00:23.588Z,47.00
2018-04-29T04:01:01.737Z,47.10
2018-04-29T04:01:40.026Z,47.10
2018-04-29T04:02:17.355Z,47.10
2018-04-29T04:02:54.648Z,47.10
2018-04-29T04:03:31.865Z,46.90
2018-04-29T04:04:09.131Z,46.90
2018-04-29T04:04:46.477Z,47.10
2018-04-29T04:05:24.554Z,47.00
2018-04-29T04:06:02.670Z,47.10
2018-04-29T04:06:39.886Z,47.00
2018-04-29T04:07:17.103Z,47.10
2018-04-29T04:07:54.526Z,47.10
2018-04-29T04:08:31.650Z,47.10
2018-04-29T04:09:09.794Z,47.10
2018-04-29T04:09:47.098Z,47.10
2018-04-29T04:10:25.434Z,47.10
2018-04-29T04:11:04.265Z,47.10
2018-04-29T04:11:41.609Z,47.10
2018-04-29T04:12:19.031Z,47.00
2018-04-29T04:12:57.298Z,47.10
2018-04-29T04:13:34.642Z,47.00
2018-04-29T04:14:12.045Z,47.10
2018-04-29T04:14:50.230Z,47.00
2018-04-29T04:15:27.505Z,46.90
2018-04-29T04:16:05.623Z,47.10
2018-04-29T04:16:42.820Z,47.00
2018-04-29T04:17:20.162Z,47.00
2018-04-29T04:17:57.510Z,47.00
2018-04-29T04:18:34.963Z,47.00
2018-04-29T04:19:12.348Z,47.00
2018-04-29T04:19:49.808Z,47.00
2018-04-29T04:20:28.050Z,46.90
2018-04-29T04:21:05.376Z,46.90
2018-04-29T04:21:43.618Z,46.80
2018-04-29T04:22:20.985Z,46.80
2018-04-29T04:22:58.390Z,46.80
2018-04-29T04:23:35.620Z,46.80
2018-04-29T04:24:12.953Z,46.70
2018-04-29T04:24:51.143Z,46.70
2018-04-29T04:25:28.367Z,46.70
2018-04-29T04:26:05.854Z,46.60
2018-04-29T04:26:43.948Z,46.60
2018-04-29T04:27:21.312Z,46.60
2018-04-29T04:27:58.653Z,46.60
2018-04-29T04:28:36.054Z,46.60
2018-04-29T04:29:13.547Z,46.60
2018-04-29T04:29:50.964Z,46.70
2018-04-29T04:30:28.449Z,46.60
2018-04-29T04:31:05.779Z,46.60
2018-04-29T04:31:43.251Z,46.60
2018-04-29T04:32:20.632Z,46.60
2018-04-29T04:32:57.999Z,46.60
2018-04-29T04:33:36.024Z,46.60
2018-04-29T04:34:13.498Z,46.60
2018-04-29T04:34:51.799Z,46.60
2018-04-29T04:35:29.887Z,46.70
2018-04-29T04:36:08.090Z,46.70
2018-04-29T04:36:45.474Z,46.70
2018-04-29T04:37:22.689Z,46.70
2018-04-29T04:38:00.977Z,46.70
2018-04-29T04:38:39.050Z,46.70
2018-04-29T04:39:16.291Z,46.70
2018-04-29T04:39:53.543Z,46.60
2018-04-29T04:40:30.750Z,46.70
2018-04-29T04:41:08.099Z,46.70
2018-04-29T04:41:45.404Z,46.70
2018-04-29T04:42:23.491Z,46.70
2018-04-29T04:43:00.866Z,46.70
2018-04-29T04:43:38.961Z,46.70
2018-04-29T04:44:16.289Z,46.70
2018-04-29T04:44:54.425Z,46.70
2018-04-29T04:45:32.630Z,46.70
2018-04-29T04:46:09.972Z,46.60
2018-04-29T04:46:47.376Z,46.60
2018-04-29T04:47:24.683Z,46.60
2018-04-29T04:48:02.739Z,46.60
2018-04-29T04:48:40.995Z,46.70
2018-04-29T04:49:19.131Z,46.60
2018-04-29T04:49:56.569Z,46.70
2018-04-29T04:50:33.928Z,46.60
2018-04-29T04:51:11.453Z,46.60
2018-04-29T04:51:48.909Z,46.70
2018-04-29T04:52:26.304Z,46.60
2018-04-29T04:53:03.661Z,46.60
2018-04-29T04:53:41.909Z,46.60
2018-04-29T04:54:19.295Z,46.60
2018-04-29T04:54:57.372Z,46.60
2018-04-29T04:55:35.544Z,46.60
2018-04-29T04:56:12.800Z,46.60
2018-04-29T04:56:50.002Z,46.60
2018-04-29T04:57:27.355Z,46.60
2018-04-29T04:58:05.628Z,46.60
2018-04-29T04:58:43.108Z,46.60
2018-04-29T04:59:20.600Z,46.60
2018-04-29T04:59:58.623Z,46.60
2018-04-29T05:00:36.079Z,46.60
2018-04-29T05:01:14.095Z,46.60
2018-04-29T05:01:52.211Z,46.50
2018-04-29T05:02:30.379Z,46.50
2018-04-29T05:03:08.490Z,46.50
2018-04-29T05:03:45.836Z,46.50
2018-04-29T05:04:23.247Z,46.50
2018-04-29T05:05:00.681Z,46.50
2018-04-29T05:05:38.720Z,47.10
2018-04-29T05:06:15.994Z,46.50
2018-04-29T05:06:53.490Z,46.40
2018-04-29T05:07:30.929Z,46.40
2018-04-29T05:08:08.410Z,46.40
2018-04-29T05:08:45.829Z,46.40
2018-04-29T05:09:23.026Z,46.40
2018-04-29T05:10:01.058Z,46.50
2018-04-29T05:10:38.438Z,46.40
2018-04-29T05:11:16.527Z,46.50
2018-04-29T05:11:54.559Z,46.50
2018-04-29T05:12:31.854Z,46.50
2018-04-29T05:13:09.072Z,46.40
2018-04-29T05:13:46.566Z,46.50
2018-04-29T05:14:24.042Z,46.50
2018-04-29T05:15:02.131Z,46.50
2018-04-29T05:15:39.374Z,46.50
2018-04-29T05:16:17.602Z,46.60
2018-04-29T05:16:54.838Z,46.50
2018-04-29T05:17:32.121Z,46.60
2018-04-29T05:18:10.231Z,46.60
2018-04-29T05:18:47.580Z,46.60
2018-04-29T05:19:25.009Z,46.60
2018-04-29T05:20:02.470Z,46.60
2018-04-29T05:20:40.565Z,46.60
2018-04-29T05:21:17.954Z,46.60
2018-04-29T05:21:55.382Z,46.60
2018-04-29T05:22:32.846Z,46.60
2018-04-29T05:23:10.118Z,46.50
2018-04-29T05:23:48.366Z,46.50
2018-04-29T05:24:25.862Z,46.50
2018-04-29T05:25:03.919Z,46.50
2018-04-29T05:25:41.209Z,46.50
2018-04-29T05:26:18.504Z,46.40
2018-04-29T05:26:56.519Z,46.60
2018-04-29T05:27:33.823Z,46.60
2018-04-29T05:28:11.170Z,46.50
2018-04-29T05:28:49.318Z,46.60
2018-04-29T05:29:26.641Z,46.50
2018-04-29T05:30:04.718Z,46.60
2018-04-29T05:30:42.049Z,46.60
2018-04-29T05:31:19.351Z,46.70
2018-04-29T05:31:57.635Z,47.30
2018-04-29T05:32:35.764Z,46.70
2018-04-29T05:33:13.108Z,46.70
2018-04-29T05:33:50.457Z,46.70
2018-04-29T05:34:27.977Z,46.60
2018-04-29T05:35:05.938Z,46.70
2018-04-29T05:35:44.150Z,46.70
2018-04-29T05:36:21.450Z,46.70
2018-04-29T05:36:58.789Z,46.60
2018-04-29T05:37:36.773Z,46.60
2018-04-29T05:38:14.136Z,46.60
2018-04-29T05:38:52.257Z,46.50
2018-04-29T05:39:30.354Z,46.60
2018-04-29T05:40:07.705Z,46.60
2018-04-29T05:40:45.117Z,46.50
2018-04-29T05:41:23.293Z,46.60
2018-04-29T05:42:00.671Z,46.60
2018-04-29T05:42:38.862Z,46.60
2018-04-29T05:43:16.393Z,46.60
2018-04-29T05:43:53.767Z,46.60
2018-04-29T05:44:31.293Z,46.70
2018-04-29T05:45:08.555Z,46.80
2018-04-29T05:45:45.995Z,46.80
2018-04-29T05:46:23.602Z,46.80
2018-04-29T05:47:01.084Z,46.80
2018-04-29T05:47:38.573Z,46.80
2018-04-29T05:48:16.815Z,46.90
2018-04-29T05:48:54.125Z,46.80
2018-04-29T05:49:32.464Z,46.90
2018-04-29T05:50:09.758Z,46.80
2018-04-29T05:50:47.762Z,46.90
2018-04-29T05:51:25.165Z,46.80
2018-04-29T05:52:03.401Z,47.50
2018-04-29T05:52:40.631Z,46.90
2018-04-29T05:53:18.341Z,46.90
2018-04-29T05:53:55.730Z,46.90
2018-04-29T05:54:33.206Z,46.90
2018-04-29T05:55:11.424Z,46.80
2018-04-29T05:55:48.809Z,46.80
2018-04-29T05:56:26.892Z,46.80
2018-04-29T05:57:05.905Z,46.80
2018-04-29T05:57:43.180Z,46.70
2018-04-29T05:58:20.658Z,46.70
2018-04-29T05:58:58.154Z,46.70
2018-04-29T05:59:36.132Z,46.80
2018-04-29T06:00:14.401Z,46.80
2018-04-29T06:00:52.637Z,46.80
2018-04-29T06:01:29.859Z,46.70
2018-04-29T06:02:07.146Z,46.80
2018-04-29T06:02:44.489Z,46.70
2018-04-29T06:03:22.712Z,46.60
2018-04-29T06:04:00.929Z,46.70
2018-04-29T06:04:38.293Z,46.70
2018-04-29T06:05:16.520Z,46.60
2018-04-29T06:05:53.767Z,46.70
2018-04-29T06:06:31.497Z,46.70
2018-04-29T06:07:09.014Z,46.70
2018-04-29T06:07:46.285Z,46.70
2018-04-29T06:08:23.759Z,46.60
2018-04-29T06:09:01.178Z,46.60
2018-04-29T06:09:39.167Z,46.60
2018-04-29T06:10:17.261Z,46.50
2018-04-29T06:10:54.630Z,46.50
2018-04-29T06:11:31.886Z,46.60
2018-04-29T06:12:09.186Z,46.50
2018-04-29T06:12:47.285Z,46.60
2018-04-29T06:13:24.655Z,46.50
2018-04-29T06:14:02.841Z,46.70
2018-04-29T06:14:41.185Z,46.60
2018-04-29T06:15:18.548Z,46.60
2018-04-29T06:15:55.921Z,46.70
2018-04-29T06:16:33.985Z,46.70
2018-04-29T06:17:12.089Z,46.70
2018-04-29T06:17:49.389Z,46.70
2018-04-29T06:18:27.463Z,46.70
2018-04-29T06:19:05.626Z,46.70
2018-04-29T06:19:42.882Z,46.70
2018-04-29T06:20:20.288Z,46.70
2018-04-29T06:20:57.816Z,46.70
2018-04-29T06:21:35.215Z,46.70
2018-04-29T06:22:13.240Z,46.70
2018-04-29T06:22:51.462Z,46.70
2018-04-29T06:23:29.436Z,46.70
2018-04-29T06:24:06.791Z,46.70
2018-04-29T06:24:44.191Z,47.20
2018-04-29T06:25:22.251Z,46.70
2018-04-29T06:26:00.577Z,46.70
2018-04-29T06:26:37.981Z,46.70
2018-04-29T06:27:16.066Z,46.70
2018-04-29T06:27:53.327Z,46.70
2018-04-29T06:28:31.413Z,46.70
2018-04-29T06:29:08.645Z,46.70
2018-04-29T06:29:46.036Z,46.70
2018-04-29T06:30:23.457Z,46.80
2018-04-29T06:31:00.745Z,46.80
2018-04-29T06:31:38.803Z,46.80
2018-04-29T06:32:16.205Z,46.80
2018-04-29T06:32:54.280Z,46.80
2018-04-29T06:33:32.384Z,46.80
2018-04-29T06:34:09.719Z,46.80
2018-04-29T06:34:47.985Z,46.80
2018-04-29T06:35:26.142Z,46.90
2018-04-29T06:36:03.491Z,46.80
2018-04-29T06:36:41.706Z,46.80
2018-04-29T06:37:18.965Z,46.80
2018-04-29T06:37:57.289Z,46.80
2018-04-29T06:38:34.503Z,46.70
2018-04-29T06:39:12.745Z,46.80
2018-04-29T06:39:50.851Z,46.80
2018-04-29T06:40:28.193Z,46.80
2018-04-29T06:41:05.542Z,46.80
2018-04-29T06:41:42.797Z,46.70
2018-04-29T06:42:20.126Z,47.30
2018-04-29T06:42:57.337Z,46.70
2018-04-29T06:43:34.574Z,46.70
2018-04-29T06:44:12.063Z,46.60
2018-04-29T06:44:49.408Z,46.60
2018-04-29T06:45:26.796Z,46.70
2018-04-29T06:46:04.279Z,46.70
2018-04-29T06:46:41.551Z,46.70
2018-04-29T06:47:18.985Z,46.70
2018-04-29T06:47:56.319Z,46.70
2018-04-29T06:48:33.771Z,46.60
2018-04-29T06:49:11.084Z,46.60
2018-04-29T06:49:48.549Z,46.60
2018-04-29T06:50:26.661Z,46.50
2018-04-29T06:51:03.894Z,46.50
2018-04-29T06:51:41.295Z,46.60
2018-04-29T06:52:18.593Z,46.60
2018-04-29T06:52:56.018Z,46.70
2018-04-29T06:53:34.059Z,46.70
2018-04-29T06:54:12.378Z,46.80
2018-04-29T06:54:50.493Z,46.80
2018-04-29T06:55:27.971Z,46.80
2018-04-29T06:56:06.206Z,46.80
2018-04-29T06:56:44.413Z,46.60
2018-04-29T06:57:22.616Z,46.80
2018-04-29T06:58:00.140Z,46.80
2018-04-29T06:58:38.279Z,46.80
2018-04-29T06:59:16.370Z,46.90
2018-04-29T06:59:54.578Z,47.10
2018-04-29T07:00:31.790Z,47.00
2018-04-29T07:01:09.201Z,47.00
2018-04-29T07:01:46.873Z,47.00
2018-04-29T07:02:24.263Z,47.00
2018-04-29T07:03:01.630Z,47.20
2018-04-29T07:03:39.862Z,47.10
2018-04-29T07:04:17.294Z,47.00
2018-04-29T07:04:55.437Z,47.00
2018-04-29T07:05:32.887Z,47.00
2018-04-29T07:06:11.003Z,47.10
2018-04-29T07:06:48.355Z,47.10
2018-04-29T07:07:26.488Z,47.20
2018-04-29T07:08:03.865Z,47.10
2018-04-29T07:08:41.949Z,47.20
2018-04-29T07:09:19.271Z,47.20
2018-04-29T07:09:56.722Z,47.20
2018-04-29T07:10:34.802Z,47.30
2018-04-29T07:11:13.002Z,47.30
2018-04-29T07:11:50.261Z,47.30
2018-04-29T07:12:27.633Z,47.30
2018-04-29T07:13:05.762Z,47.20
2018-04-29T07:13:43.027Z,47.20
2018-04-29T07:14:21.101Z,47.30
2018-04-29T07:14:58.454Z,47.20
2018-04-29T07:15:36.702Z,47.20
2018-04-29T07:16:13.919Z,47.20
2018-04-29T07:16:51.102Z,47.10
2018-04-29T07:17:28.302Z,47.10
2018-04-29T07:18:05.648Z,47.10
2018-04-29T07:18:42.894Z,47.10
2018-04-29T07:19:20.923Z,47.10
2018-04-29T07:19:58.267Z,47.10
2018-04-29T07:20:35.824Z,47.20
2018-04-29T07:21:13.891Z,47.20
2018-04-29T07:21:51.224Z,47.20
2018-04-29T07:22:29.243Z,47.00
2018-04-29T07:23:06.494Z,47.00
2018-04-29T07:23:44.714Z,47.30
2018-04-29T07:24:22.051Z,47.30
2018-04-29T07:24:59.302Z,47.40
2018-04-29T07:25:36.610Z,47.70
2018-04-29T07:26:14.078Z,47.50
2018-04-29T07:26:52.437Z,47.60
2018-04-29T07:27:30.508Z,47.60
2018-04-29T07:28:08.696Z,47.50
2018-04-29T07:28:46.217Z,47.50
2018-04-29T07:29:24.473Z,47.50
2018-04-29T07:30:01.728Z,47.40
2018-04-29T07:30:38.988Z,47.50
2018-04-29T07:31:16.366Z,47.30
2018-04-29T07:31:53.661Z,47.30
2018-04-29T07:32:31.015Z,47.40
2018-04-29T07:33:08.427Z,47.10
2018-04-29T07:33:46.450Z,47.20
2018-04-29T07:34:23.827Z,47.20
2018-04-29T07:35:01.987Z,47.20
2018-04-29T07:35:40.215Z,47.40
2018-04-29T07:36:18.689Z,47.60
2018-04-29T07:36:56.937Z,47.20
2018-04-29T07:37:34.221Z,47.20
2018-04-29T07:38:12.248Z,47.50
2018-04-29T07:38:49.616Z,47.50
2018-04-29T07:39:27.052Z,47.40
2018-04-29T07:40:04.630Z,47.50
2018-04-29T07:40:42.260Z,47.60
2018-04-29T07:41:19.620Z,47.40
2018-04-29T07:41:57.034Z,47.30
2018-04-29T07:42:35.116Z,47.70
2018-04-29T07:43:13.229Z,47.60
2018-04-29T07:43:50.657Z,47.60
2018-04-29T07:44:28.678Z,47.50
2018-04-29T07:45:06.034Z,47.50
2018-04-29T07:45:43.452Z,47.70
2018-04-29T07:46:21.564Z,46.90
2018-04-29T07:46:59.046Z,46.90
2018-04-29T07:47:36.491Z,47.50
2018-04-29T07:48:13.783Z,47.30
2018-04-29T07:48:51.744Z,47.50
2018-04-29T07:49:29.189Z,47.50
2018-04-29T07:50:06.571Z,47.40
2018-04-29T07:50:44.042Z,47.50
2018-04-29T07:51:21.325Z,47.50
2018-04-29T07:51:58.656Z,47.60
2018-04-29T07:52:36.796Z,47.40
2018-04-29T07:53:14.203Z,47.30
2018-04-29T07:53:52.190Z,47.40
2018-04-29T07:54:29.554Z,47.40
2018-04-29T07:55:06.874Z,47.50
2018-04-29T07:55:44.960Z,47.70
2018-04-29T07:56:22.378Z,47.70
2018-04-29T07:57:00.005Z,47.70
2018-04-29T07:57:37.436Z,47.70
2018-04-29T07:58:14.910Z,47.60
2018-04-29T07:58:52.406Z,47.60
2018-04-29T07:59:30.427Z,47.00
2018-04-29T08:00:07.765Z,47.00
2018-04-29T08:00:46.023Z,47.70
2018-04-29T08:01:23.651Z,47.70
2018-04-29T08:02:01.122Z,47.30
2018-04-29T08:02:39.052Z,47.60
2018-04-29T08:03:16.291Z,47.50
2018-04-29T08:03:53.771Z,47.00
2018-04-29T08:04:31.982Z,47.20